Archival Weather

Chicago O'Hare International

Chicago, Illinois (KORD)

Report from: Friday, December 2, 2022 12:51 PM CST
Current time: Friday, June 21, 2024 3:08 AM CDT

Current weather – Weather history – Daily summaries
Weather forecast

Temperature8.3°C (46.9°F)
Wind chill4.1°C (39.4°F)
Dew point-1.7°C (28.9°F)
Winds 18 kts (9.3 m/s, 20.7 mph) South-Southwest (200°)
Wind gusts 26 kts (13.4 m/s, 29.9 mph)
Peak wind 26 kts (13.4 m/s, 29.9 mph) South-Southwest (210°) at 18:51
Visibility10 mi. (16.1 km)
Clouds Scattered clouds 3,600 ft. (1,097 m)
Ceiling: Overcast 25,000 ft. (7,620 m)
Altimeter29.79 in.Hg (1009 mB)
Relative humidity49 %
Density altitude-575 ft. (-175 m)
Sea-level pressure100.9 kPa (1009 mB, 29.80 in.Hg)
Remarks Automated weather observing station with precipitation discriminator
Flight conditions Visual Meteorological Conditions
Raw dataKORD 021851Z 20018G26KT 10SM SCT036 OVC250 08/M02 A2979 RMK AO2 PK WND 21026/1851 SLP090 T00831017
An error has occurred. This application may no longer respond until reloaded. Reload 🗙